createdAt,value
2023-02-14T00:01:40.526Z,21.87
2023-02-14T00:06:42.078Z,21.87
2023-02-14T00:11:43.650Z,21.77
2023-02-14T00:16:45.041Z,21.73
2023-02-14T00:21:46.531Z,21.85
2023-02-14T00:26:48.074Z,21.87
2023-02-14T00:31:49.515Z,21.84
2023-02-14T00:36:50.988Z,21.80
2023-02-14T00:41:52.457Z,21.79
2023-02-14T00:46:53.848Z,21.87
2023-02-14T00:51:55.699Z,21.87
2023-02-14T00:56:57.089Z,21.84
2023-02-14T01:01:58.470Z,21.83
2023-02-14T01:06:59.866Z,21.79
2023-02-14T01:12:01.254Z,21.86
2023-02-14T01:17:02.638Z,21.88
2023-02-14T01:22:04.104Z,21.81
2023-02-14T01:27:05.491Z,21.76
2023-02-14T01:32:06.995Z,21.78
2023-02-14T01:37:08.521Z,21.84
2023-02-14T01:42:10.877Z,21.86
2023-02-14T01:47:12.250Z,21.79
2023-02-14T01:52:16.055Z,21.79
2023-02-14T01:57:17.879Z,21.85
2023-02-14T02:02:23.496Z,21.90
2023-02-14T02:07:25.626Z,21.87
2023-02-14T02:12:29.192Z,21.80
2023-02-14T02:17:41.619Z,21.83
2023-02-14T02:23:04.368Z,21.86
2023-02-14T02:28:22.722Z,21.87
2023-02-14T02:33:39.183Z,21.82
2023-02-14T02:38:45.887Z,21.79
2023-02-14T02:44:02.302Z,21.78
2023-02-14T02:49:11.303Z,21.85
2023-02-14T02:54:35.418Z,21.89
2023-02-14T02:59:41.613Z,21.82
2023-02-14T03:04:54.026Z,21.80
2023-02-14T03:09:57.472Z,21.81
2023-02-14T03:15:17.442Z,21.88
2023-02-14T03:20:34.234Z,21.95
2023-02-14T03:26:01.534Z,21.86
2023-02-14T03:31:12.810Z,21.74
2023-02-14T03:36:21.957Z,21.79
2023-02-14T03:41:25.927Z,21.85
2023-02-14T03:46:44.701Z,21.86
2023-02-14T03:51:48.284Z,21.84
2023-02-14T03:56:51.219Z,21.74
2023-02-14T04:02:05.846Z,21.76
2023-02-14T04:07:18.375Z,21.81
2023-02-14T04:12:29.418Z,21.88
2023-02-14T04:17:57.195Z,21.75
2023-02-14T04:22:58.646Z,21.79
2023-02-14T04:28:00.073Z,21.82
2023-02-14T04:33:01.514Z,21.90
2023-02-14T04:38:03.415Z,21.86
2023-02-14T04:43:04.882Z,21.78
2023-02-14T04:48:06.246Z,21.81
2023-02-14T04:53:07.621Z,21.85
2023-02-14T04:58:09.016Z,21.85
2023-02-14T05:03:10.411Z,21.82
2023-02-14T05:08:11.901Z,21.81
2023-02-14T05:13:14.220Z,21.80
2023-02-14T05:18:15.607Z,21.88
2023-02-14T05:23:16.998Z,21.86
2023-02-14T05:28:19.122Z,21.82
2023-02-14T05:33:20.504Z,21.74
2023-02-14T05:38:21.886Z,21.84
2023-02-14T05:43:23.279Z,21.89
2023-02-14T05:48:24.695Z,21.92
2023-02-14T05:53:26.071Z,21.85
2023-02-14T05:58:27.447Z,21.86
2023-02-14T06:03:28.902Z,21.89
2023-02-14T06:08:30.294Z,21.95
2023-02-14T06:13:32.960Z,21.90
2023-02-14T06:18:34.350Z,21.86
2023-02-14T06:23:35.740Z,21.87
2023-02-14T06:28:37.157Z,21.93
2023-02-14T06:33:38.533Z,21.88
2023-02-14T06:38:41.089Z,21.85
2023-02-14T06:43:43.115Z,21.83
2023-02-14T06:48:44.594Z,21.83
2023-02-14T06:53:45.970Z,21.90
2023-02-14T06:58:47.355Z,21.87
2023-02-14T07:03:48.734Z,21.83
2023-02-14T07:08:50.188Z,21.80
2023-02-14T07:13:51.576Z,21.87
2023-02-14T07:18:52.979Z,21.91
2023-02-14T07:23:54.411Z,21.86
2023-02-14T07:28:55.823Z,21.78
2023-02-14T07:34:00.616Z,21.80
2023-02-14T07:39:01.999Z,21.89
2023-02-14T07:44:03.387Z,21.87
2023-02-14T07:49:04.780Z,21.87
2023-02-14T07:54:06.154Z,21.80
2023-02-14T07:59:07.535Z,21.87
2023-02-14T08:04:08.970Z,21.91
2023-02-14T08:09:10.439Z,21.87
2023-02-14T08:14:11.808Z,21.81
2023-02-14T08:19:13.212Z,21.77
2023-02-14T08:24:14.597Z,21.85
2023-02-14T08:29:16.922Z,21.87
2023-02-14T08:34:18.383Z,21.83
2023-02-14T08:39:19.796Z,21.78
2023-02-14T08:44:21.637Z,21.81
2023-02-14T08:49:23.079Z,21.89
2023-02-14T08:54:24.514Z,21.87
2023-02-14T08:59:25.965Z,21.84
2023-02-14T09:04:27.394Z,21.77
2023-02-14T09:09:28.870Z,21.79
2023-02-14T09:14:32.100Z,21.88
2023-02-14T09:19:33.984Z,21.93
2023-02-14T09:24:35.875Z,21.97
2023-02-14T09:29:37.292Z,22.13
2023-02-14T09:34:56.956Z,22.14
2023-02-14T09:39:58.394Z,22.16
2023-02-14T09:45:02.572Z,22.16
2023-02-14T09:50:05.849Z,22.14
2023-02-14T09:55:12.631Z,22.17
2023-02-14T10:00:39.260Z,22.21
2023-02-14T10:06:01.987Z,22.19
2023-02-14T10:11:08.935Z,22.15
2023-02-14T10:16:12.274Z,22.15
2023-02-14T10:21:21.462Z,22.23
2023-02-14T10:26:30.547Z,22.39
2023-02-14T10:31:39.542Z,22.45
2023-02-14T10:36:52.960Z,22.39
2023-02-14T10:41:58.398Z,22.47
2023-02-14T10:47:50.968Z,22.46
2023-02-14T10:53:14.326Z,22.55
2023-02-14T10:58:17.629Z,22.50
2023-02-14T11:03:19.084Z,22.53
2023-02-14T11:08:27.585Z,22.51
2023-02-14T11:13:36.423Z,22.57
2023-02-14T11:18:39.788Z,22.54
2023-02-14T11:23:42.920Z,22.46
2023-02-14T11:29:05.460Z,22.52
2023-02-14T11:34:22.503Z,22.55
2023-02-14T11:39:29.171Z,22.60
2023-02-14T11:44:32.861Z,22.55
2023-02-14T11:49:34.923Z,22.46
2023-02-14T11:54:38.283Z,22.47
2023-02-14T11:59:47.957Z,22.60
2023-02-14T12:04:49.938Z,22.60
2023-02-14T12:10:10.769Z,22.51
2023-02-14T12:15:21.372Z,22.42
2023-02-14T12:20:44.126Z,22.48
2023-02-14T12:25:50.021Z,22.58
2023-02-14T12:30:51.420Z,22.58
2023-02-14T12:36:14.478Z,22.48
2023-02-14T12:41:24.716Z,22.51
2023-02-14T12:46:38.107Z,22.57
2023-02-14T12:51:50.262Z,22.62
2023-02-14T12:57:30.084Z,22.65
2023-02-14T13:03:07.792Z,22.56
2023-02-14T13:08:12.083Z,22.60
2023-02-14T13:13:35.232Z,22.67
2023-02-14T13:18:44.320Z,22.67
2023-02-14T13:23:47.211Z,22.60
2023-02-14T13:29:06.262Z,22.65
2023-02-14T13:34:36.829Z,22.69
2023-02-14T13:39:46.191Z,22.69
2023-02-14T13:44:49.055Z,22.71
2023-02-14T13:49:54.174Z,22.64
2023-02-14T13:54:55.539Z,22.66
2023-02-14T14:00:21.690Z,22.75
2023-02-14T14:05:32.430Z,22.77
2023-02-14T14:11:10.331Z,22.77
2023-02-14T14:16:24.029Z,22.65
2023-02-14T14:21:35.680Z,22.66
2023-02-14T14:26:39.799Z,22.77
2023-02-14T14:31:41.589Z,22.81
2023-02-14T14:36:43.294Z,22.77
2023-02-14T14:41:44.693Z,22.58
2023-02-14T14:46:46.654Z,22.57
2023-02-14T14:51:48.039Z,22.66
2023-02-14T14:56:51.921Z,22.68
2023-02-14T15:01:54.359Z,22.65
2023-02-14T15:06:57.338Z,22.46
2023-02-14T15:12:17.992Z,22.43
2023-02-14T15:17:24.262Z,22.50
2023-02-14T15:22:27.037Z,22.51
2023-02-14T15:27:28.465Z,22.44
2023-02-14T15:32:34.150Z,22.39
2023-02-14T15:37:35.523Z,22.32
2023-02-14T15:42:40.556Z,22.39
2023-02-14T15:47:42.632Z,22.41
2023-02-14T15:52:44.619Z,22.31
2023-02-14T15:57:48.471Z,22.20
2023-02-14T16:02:55.022Z,22.25
2023-02-14T16:08:05.875Z,22.32
2023-02-14T16:13:31.168Z,22.28
2023-02-14T16:18:43.310Z,22.17
2023-02-14T16:23:46.091Z,22.13
2023-02-14T16:28:47.476Z,22.20
2023-02-14T16:33:48.891Z,22.22
2023-02-14T16:38:50.653Z,22.21
2023-02-14T16:43:52.141Z,22.10
2023-02-14T16:48:53.565Z,22.11
2023-02-14T16:54:00.195Z,22.21
2023-02-14T16:59:01.635Z,22.23
2023-02-14T17:04:03.060Z,22.08
2023-02-14T17:09:07.092Z,22.02
2023-02-14T17:14:08.491Z,22.11
2023-02-14T17:19:10.311Z,22.13
2023-02-14T17:24:11.690Z,22.10
2023-02-14T17:29:13.321Z,22.02
2023-02-14T17:34:14.704Z,21.98
2023-02-14T17:39:17.977Z,22.02
2023-02-14T17:44:19.383Z,22.10
2023-02-14T17:49:20.891Z,22.09
2023-02-14T17:54:22.801Z,22.06
2023-02-14T17:59:24.178Z,22.09
2023-02-14T18:04:25.571Z,22.13
2023-02-14T18:09:27.023Z,22.19
2023-02-14T18:14:28.451Z,22.14
2023-02-14T18:19:29.862Z,22.09
2023-02-14T18:24:31.230Z,22.15
2023-02-14T18:29:32.923Z,22.16
2023-02-14T18:34:37.060Z,22.17
2023-02-14T18:39:38.456Z,22.13
2023-02-14T18:44:39.871Z,22.09
2023-02-14T18:49:41.299Z,22.16
2023-02-14T18:54:42.691Z,22.15
2023-02-14T18:59:44.966Z,22.12
2023-02-14T19:04:46.523Z,22.10
2023-02-14T19:09:47.890Z,22.09
2023-02-14T19:14:49.719Z,22.16
2023-02-14T19:19:51.893Z,22.15
2023-02-14T19:24:53.774Z,22.07
2023-02-14T19:29:55.184Z,22.05
2023-02-14T19:34:56.563Z,22.13
2023-02-14T19:39:58.097Z,22.14
2023-02-14T19:44:59.790Z,22.10
2023-02-14T19:50:01.217Z,22.07
2023-02-14T19:55:03.635Z,22.08
2023-02-14T20:00:08.462Z,22.16
2023-02-14T20:05:09.849Z,22.13
2023-02-14T20:10:11.780Z,22.08
2023-02-14T20:15:13.147Z,22.07
2023-02-14T20:20:15.958Z,22.11
2023-02-14T20:25:17.388Z,22.14
2023-02-14T20:30:20.617Z,22.07
2023-02-14T20:35:22.069Z,22.03
2023-02-14T20:40:23.441Z,22.10
2023-02-14T20:45:24.894Z,22.15
2023-02-14T20:50:26.274Z,22.09
2023-02-14T20:55:28.347Z,22.03
2023-02-14T21:00:29.929Z,22.07
2023-02-14T21:05:31.426Z,22.11
2023-02-14T21:10:32.805Z,22.10
2023-02-14T21:15:34.263Z,22.04
2023-02-14T21:20:36.467Z,22.05
2023-02-14T21:25:38.597Z,22.08
2023-02-14T21:30:39.983Z,22.12
2023-02-14T21:35:41.467Z,22.04
2023-02-14T21:40:42.868Z,22.02
2023-02-14T21:45:54.416Z,22.04
2023-02-14T21:50:55.940Z,22.12
2023-02-14T21:56:06.659Z,22.07
2023-02-14T22:01:08.038Z,22.00
2023-02-14T22:06:10.121Z,22.04
2023-02-14T22:11:13.134Z,22.11
2023-02-14T22:16:15.969Z,22.11
2023-02-14T22:21:20.032Z,22.07
2023-02-14T22:26:25.526Z,22.00
2023-02-14T22:31:30.684Z,22.05
2023-02-14T22:36:32.107Z,22.08
2023-02-14T22:41:37.532Z,22.03
2023-02-14T22:46:39.205Z,21.95
2023-02-14T22:51:41.250Z,21.96
2023-02-14T22:56:44.150Z,22.04
2023-02-14T23:01:45.675Z,22.07
2023-02-14T23:06:47.320Z,21.97
2023-02-14T23:11:48.930Z,21.86
2023-02-14T23:17:08.648Z,21.96
2023-02-14T23:22:20.696Z,22.04
2023-02-14T23:27:24.499Z,22.05
2023-02-14T23:32:25.882Z,21.96
2023-02-14T23:37:27.288Z,21.91
2023-02-14T23:42:28.679Z,21.97
2023-02-14T23:47:30.099Z,22.01
2023-02-14T23:52:31.472Z,21.97
2023-02-14T23:57:32.852Z,21.85
